sensor_id;sensor_type;location;lat;lon;timestamp;P1;durP1;ratioP1;P2;durP2;ratioP2
7883;SDS011;3987;51.458;7.238;2024-03-23T00:58:41;30.47;;;11.23;;
7883;SDS011;3987;51.458;7.238;2024-03-23T01:13:41;36.43;;;9.27;;
7883;SDS011;3987;51.458;7.238;2024-03-23T01:28:42;27.40;;;8.90;;
7883;SDS011;3987;51.458;7.238;2024-03-23T01:43:42;27.43;;;8.70;;
7883;SDS011;3987;51.458;7.238;2024-03-23T01:58:42;27.03;;;9.30;;
7883;SDS011;3987;51.458;7.238;2024-03-23T02:13:43;20.60;;;8.23;;
7883;SDS011;3987;51.458;7.238;2024-03-23T02:28:43;17.80;;;8.03;;
7883;SDS011;3987;51.458;7.238;2024-03-23T02:43:43;20.00;;;8.03;;
7883;SDS011;3987;51.458;7.238;2024-03-23T02:58:44;23.60;;;8.40;;
7883;SDS011;3987;51.458;7.238;2024-03-23T03:13:44;18.77;;;7.20;;
7883;SDS011;3987;51.458;7.238;2024-03-23T03:28:45;13.70;;;6.30;;
7883;SDS011;3987;51.458;7.238;2024-03-23T03:43:49;13.03;;;5.60;;
7883;SDS011;3987;51.458;7.238;2024-03-23T03:58:49;15.47;;;5.93;;
7883;SDS011;3987;51.458;7.238;2024-03-23T04:13:49;8.47;;;5.53;;
7883;SDS011;3987;51.458;7.238;2024-03-23T04:28:50;12.50;;;4.90;;
7883;SDS011;3987;51.458;7.238;2024-03-23T04:43:50;18.52;;;7.30;;
7883;SDS011;3987;51.458;7.238;2024-03-23T04:58:51;18.08;;;10.00;;
7883;SDS011;3987;51.458;7.238;2024-03-23T05:13:51;18.60;;;8.20;;
7883;SDS011;3987;51.458;7.238;2024-03-23T05:28:51;17.60;;;9.05;;
7883;SDS011;3987;51.458;7.238;2024-03-23T05:43:52;25.57;;;13.50;;
7883;SDS011;3987;51.458;7.238;2024-03-23T05:58:52;33.67;;;17.50;;
7883;SDS011;3987;51.458;7.238;2024-03-23T06:13:53;29.88;;;18.00;;
7883;SDS011;3987;51.458;7.238;2024-03-23T06:28:53;36.53;;;22.08;;
7883;SDS011;3987;51.458;7.238;2024-03-23T06:43:54;51.38;;;31.25;;
7883;SDS011;3987;51.458;7.238;2024-03-23T06:58:54;49.00;;;32.03;;
7883;SDS011;3987;51.458;7.238;2024-03-23T07:13:55;52.27;;;33.43;;
7883;SDS011;3987;51.458;7.238;2024-03-23T07:28:55;50.70;;;32.60;;
7883;SDS011;3987;51.458;7.238;2024-03-23T07:43:55;49.17;;;32.80;;
7883;SDS011;3987;51.458;7.238;2024-03-23T07:58:56;45.10;;;29.80;;
7883;SDS011;3987;51.458;7.238;2024-03-23T08:13:56;27.38;;;21.13;;
7883;SDS011;3987;51.458;7.238;2024-03-23T08:28:59;25.40;;;16.07;;
7883;SDS011;3987;51.458;7.238;2024-03-23T08:43:59;22.77;;;14.47;;
7883;SDS011;3987;51.458;7.238;2024-03-23T08:59:00;15.63;;;9.40;;
7883;SDS011;3987;51.458;7.238;2024-03-23T09:14:01;9.73;;;6.80;;
7883;SDS011;3987;51.458;7.238;2024-03-23T09:29:01;4.53;;;3.80;;
7883;SDS011;3987;51.458;7.238;2024-03-23T09:44:02;4.20;;;3.67;;
7883;SDS011;3987;51.458;7.238;2024-03-23T09:59:03;6.32;;;5.57;;
7883;SDS011;3987;51.458;7.238;2024-03-23T10:14:03;6.50;;;5.90;;
7883;SDS011;3987;51.458;7.238;2024-03-23T10:29:04;6.15;;;4.40;;
7883;SDS011;3987;51.458;7.238;2024-03-23T10:44:08;3.83;;;2.00;;
7883;SDS011;3987;51.458;7.238;2024-03-23T10:59:08;7.07;;;2.40;;
7883;SDS011;3987;51.458;7.238;2024-03-23T11:14:12;1.27;;;1.20;;
7883;SDS011;3987;51.458;7.238;2024-03-23T11:29:22;1.80;;;1.70;;
7883;SDS011;3987;51.458;7.238;2024-03-23T11:44:23;2.33;;;2.13;;
7883;SDS011;3987;51.458;7.238;2024-03-23T12:14:34;3.20;;;2.97;;
7883;SDS011;3987;51.458;7.238;2024-03-23T12:29:35;1.97;;;1.87;;
7883;SDS011;3987;51.458;7.238;2024-03-23T12:44:35;1.73;;;1.40;;
7883;SDS011;3987;51.458;7.238;2024-03-23T12:59:36;1.80;;;1.70;;
7883;SDS011;3987;51.458;7.238;2024-03-23T13:14:37;2.97;;;2.30;;
7883;SDS011;3987;51.458;7.238;2024-03-23T13:29:38;2.50;;;2.17;;
7883;SDS011;3987;51.458;7.238;2024-03-23T13:44:39;1.27;;;1.27;;
7883;SDS011;3987;51.458;7.238;2024-03-23T13:59:39;2.78;;;2.45;;
7883;SDS011;3987;51.458;7.238;2024-03-23T14:14:39;3.60;;;2.40;;
7883;SDS011;3987;51.458;7.238;2024-03-23T14:29:40;1.90;;;1.10;;
7883;SDS011;3987;51.458;7.238;2024-03-23T14:44:40;1.90;;;1.10;;
7883;SDS011;3987;51.458;7.238;2024-03-23T14:59:42;1.10;;;1.00;;
7883;SDS011;3987;51.458;7.238;2024-03-23T15:14:42;1.20;;;1.10;;
7883;SDS011;3987;51.458;7.238;2024-03-23T15:29:43;2.33;;;2.13;;
7883;SDS011;3987;51.458;7.238;2024-03-23T15:44:45;1.97;;;1.77;;
7883;SDS011;3987;51.458;7.238;2024-03-23T15:59:46;2.87;;;1.67;;
7883;SDS011;3987;51.458;7.238;2024-03-23T16:14:47;2.97;;;1.55;;
7883;SDS011;3987;51.458;7.238;2024-03-23T16:29:48;2.93;;;1.67;;
7883;SDS011;3987;51.458;7.238;2024-03-23T16:44:49;2.33;;;2.10;;
7883;SDS011;3987;51.458;7.238;2024-03-23T16:59:49;2.03;;;1.45;;
7883;SDS011;3987;51.458;7.238;2024-03-23T17:14:50;1.30;;;1.20;;
7883;SDS011;3987;51.458;7.238;2024-03-23T17:29:50;1.27;;;1.27;;
7883;SDS011;3987;51.458;7.238;2024-03-23T17:44:53;1.60;;;1.50;;
7883;SDS011;3987;51.458;7.238;2024-03-23T17:59:54;2.23;;;2.10;;
7883;SDS011;3987;51.458;7.238;2024-03-23T18:14:55;2.70;;;2.53;;
7883;SDS011;3987;51.458;7.238;2024-03-23T18:29:57;3.00;;;2.80;;
7883;SDS011;3987;51.458;7.238;2024-03-23T18:44:57;2.80;;;2.63;;
7883;SDS011;3987;51.458;7.238;2024-03-23T18:59:58;3.20;;;3.00;;
7883;SDS011;3987;51.458;7.238;2024-03-23T19:14:59;2.97;;;2.77;;
7883;SDS011;3987;51.458;7.238;2024-03-23T19:30:00;2.50;;;2.30;;
7883;SDS011;3987;51.458;7.238;2024-03-23T19:45:00;2.70;;;2.50;;
7883;SDS011;3987;51.458;7.238;2024-03-23T20:00:01;2.47;;;2.27;;
7883;SDS011;3987;51.458;7.238;2024-03-23T20:15:02;5.10;;;3.95;;
7883;SDS011;3987;51.458;7.238;2024-03-23T20:30:05;4.27;;;4.07;;
7883;SDS011;3987;51.458;7.238;2024-03-23T20:45:07;5.30;;;5.00;;
7883;SDS011;3987;51.458;7.238;2024-03-23T21:00:10;8.07;;;7.68;;
7883;SDS011;3987;51.458;7.238;2024-03-23T21:15:11;17.00;;;15.60;;
7883;SDS011;3987;51.458;7.238;2024-03-23T21:30:11;26.60;;;24.20;;
7883;SDS011;3987;51.458;7.238;2024-03-23T21:45:12;20.90;;;19.07;;
7883;SDS011;3987;51.458;7.238;2024-03-23T22:00:13;14.48;;;13.38;;
7883;SDS011;3987;51.458;7.238;2024-03-23T22:15:14;12.80;;;11.73;;
7883;SDS011;3987;51.458;7.238;2024-03-23T22:30:15;10.33;;;9.43;;
7883;SDS011;3987;51.458;7.238;2024-03-23T22:45:15;11.55;;;10.38;;
7883;SDS011;3987;51.458;7.238;2024-03-23T23:00:16;11.30;;;9.67;;
7883;SDS011;3987;51.458;7.238;2024-03-23T23:15:18;10.45;;;9.65;;
7883;SDS011;3987;51.458;7.238;2024-03-23T23:30:19;9.35;;;8.65;;
7883;SDS011;3987;51.458;7.238;2024-03-23T23:45:19;9.57;;;8.63;;
